createdAt,value
2022-11-26T00:00:20.065Z,6.54
2022-11-26T00:02:48.136Z,6.48
2022-11-26T00:05:16.719Z,6.49
2022-11-26T00:07:46.957Z,6.45
2022-11-26T00:10:20.771Z,6.34
2022-11-26T00:12:48.829Z,6.36
2022-11-26T00:15:18.209Z,6.35
2022-11-26T00:17:46.206Z,6.40
2022-11-26T00:20:14.190Z,6.47
2022-11-26T00:22:42.696Z,6.46
2022-11-26T00:25:17.662Z,6.49
2022-11-26T00:27:47.014Z,6.46
2022-11-26T00:30:16.840Z,6.44
2022-11-26T00:32:44.900Z,6.41
2022-11-26T00:35:12.980Z,6.40
2022-11-26T00:37:42.185Z,6.35
2022-11-26T00:40:18.003Z,6.31
2022-11-26T00:42:47.418Z,6.25
2022-11-26T00:45:17.523Z,6.14
2022-11-26T00:47:45.507Z,6.15
2022-11-26T00:50:17.454Z,6.10
2022-11-26T00:52:45.500Z,6.03
2022-11-26T00:55:20.612Z,5.97
2022-11-26T00:57:50.035Z,5.88
2022-11-26T01:00:18.781Z,5.84
2022-11-26T01:02:46.823Z,5.84
2022-11-26T01:05:14.824Z,5.78
2022-11-26T01:07:42.867Z,5.74
2022-11-26T01:10:16.781Z,5.75
2022-11-26T01:12:44.759Z,5.67
2022-11-26T01:15:14.376Z,5.63
2022-11-26T01:17:42.388Z,5.53
2022-11-26T01:20:25.166Z,5.52
2022-11-26T01:22:53.756Z,5.47
2022-11-26T01:25:21.680Z,5.41
2022-11-26T01:27:49.640Z,5.38
2022-11-26T01:30:21.174Z,5.39
2022-11-26T01:32:49.261Z,5.37
2022-11-26T01:35:17.992Z,5.30
2022-11-26T01:37:46.120Z,5.28
2022-11-26T01:40:37.752Z,5.21
2022-11-26T01:43:08.386Z,5.12
2022-11-26T01:45:37.936Z,5.07
2022-11-26T01:48:14.508Z,5.06
2022-11-26T01:51:00.966Z,4.98
2022-11-26T01:53:42.000Z,5.04
2022-11-26T01:56:17.064Z,4.95
2022-11-26T01:58:46.747Z,4.95
2022-11-26T02:01:16.131Z,4.86
2022-11-26T02:03:46.849Z,4.84
2022-11-26T02:06:17.571Z,4.81
2022-11-26T02:08:45.504Z,4.74
2022-11-26T02:11:16.837Z,4.71
2022-11-26T02:13:45.149Z,4.64
2022-11-26T02:16:16.096Z,4.56
2022-11-26T02:18:45.501Z,4.48
2022-11-26T02:21:14.866Z,4.41
2022-11-26T02:24:26.234Z,4.32
2022-11-26T02:27:40.475Z,4.21
2022-11-26T02:30:10.586Z,4.15
2022-11-26T02:32:44.052Z,4.09
2022-11-26T02:35:14.472Z,4.00
2022-11-26T02:37:45.872Z,3.92
2022-11-26T02:40:13.881Z,3.85
2022-11-26T02:42:42.040Z,3.86
2022-11-26T02:45:12.701Z,3.84
2022-11-26T02:47:41.404Z,3.79
2022-11-26T02:50:10.850Z,3.67
2022-11-26T02:52:38.860Z,3.67
2022-11-26T02:55:07.196Z,3.60
2022-11-26T02:57:35.729Z,3.54
2022-11-26T03:00:05.003Z,3.50
2022-11-26T03:02:35.461Z,3.45
2022-11-26T03:05:03.490Z,3.43
2022-11-26T03:07:31.730Z,3.29
2022-11-26T03:10:01.301Z,3.33
2022-11-26T03:12:29.386Z,3.27
2022-11-26T03:14:57.403Z,3.28
2022-11-26T03:17:25.387Z,3.19
2022-11-26T03:19:55.114Z,3.24
2022-11-26T03:22:23.099Z,3.20
2022-11-26T03:24:51.251Z,3.26
2022-11-26T03:27:19.204Z,3.21
2022-11-26T03:29:47.184Z,3.17
2022-11-26T03:32:15.386Z,3.14
2022-11-26T03:34:44.086Z,3.14
2022-11-26T03:37:13.368Z,3.11
2022-11-26T03:39:41.430Z,3.07
2022-11-26T03:42:09.382Z,3.01
2022-11-26T03:44:37.753Z,2.94
2022-11-26T03:47:06.055Z,2.92
2022-11-26T03:49:34.210Z,2.90
2022-11-26T03:52:02.193Z,2.88
2022-11-26T03:54:31.629Z,2.88
2022-11-26T03:56:59.581Z,2.83
2022-11-26T03:59:27.602Z,2.78
2022-11-26T04:01:55.700Z,2.74
2022-11-26T04:04:23.680Z,2.71
2022-11-26T04:06:51.612Z,2.67
2022-11-26T04:09:19.598Z,2.68
2022-11-26T04:11:48.938Z,2.68
2022-11-26T04:14:16.891Z,2.62
2022-11-26T04:16:44.952Z,2.62
2022-11-26T04:19:13.018Z,2.59
2022-11-26T04:21:40.956Z,2.57
2022-11-26T04:24:09.427Z,2.55
2022-11-26T04:26:37.347Z,2.52
2022-11-26T04:29:06.675Z,2.48
2022-11-26T04:31:34.675Z,2.50
2022-11-26T04:34:02.800Z,2.46
2022-11-26T04:36:30.831Z,2.46
2022-11-26T04:38:58.810Z,2.43
2022-11-26T04:41:26.823Z,2.44
2022-11-26T04:43:54.822Z,2.45
2022-11-26T04:46:24.117Z,2.44
2022-11-26T04:48:52.054Z,2.43
2022-11-26T04:51:19.979Z,2.40
2022-11-26T04:53:47.910Z,2.39
2022-11-26T04:56:15.928Z,2.39
2022-11-26T04:58:43.973Z,2.33
2022-11-26T05:01:11.973Z,2.12
2022-11-26T05:03:41.351Z,2.24
2022-11-26T05:06:10.857Z,2.29
2022-11-26T05:08:38.828Z,2.27
2022-11-26T05:11:07.476Z,2.27
2022-11-26T05:13:35.420Z,2.29
2022-11-26T05:16:03.424Z,2.26
2022-11-26T05:18:31.422Z,2.27
2022-11-26T05:21:00.778Z,2.33
2022-11-26T05:23:28.834Z,2.34
2022-11-26T05:25:56.899Z,2.39
2022-11-26T05:28:24.839Z,2.38
2022-11-26T05:30:58.904Z,2.39
2022-11-26T05:33:26.973Z,2.39
2022-11-26T05:35:54.957Z,2.35
2022-11-26T05:38:24.348Z,2.33
2022-11-26T05:40:52.324Z,2.40
2022-11-26T05:43:20.669Z,2.47
2022-11-26T05:45:48.686Z,2.55
2022-11-26T05:48:16.676Z,2.61
2022-11-26T05:50:44.654Z,2.70
2022-11-26T05:53:12.603Z,2.78
2022-11-26T05:55:41.972Z,2.88
2022-11-26T05:58:10.788Z,2.93
2022-11-26T06:00:38.815Z,2.98
2022-11-26T06:03:06.938Z,3.09
2022-11-26T06:05:34.959Z,3.16
2022-11-26T06:08:03.041Z,3.24
2022-11-26T06:10:31.076Z,3.24
2022-11-26T06:13:00.439Z,3.42
2022-11-26T06:15:28.468Z,3.55
2022-11-26T06:17:56.422Z,3.62
2022-11-26T06:20:24.359Z,3.79
2022-11-26T06:22:52.282Z,3.91
2022-11-26T06:25:20.272Z,4.04
2022-11-26T06:27:48.224Z,4.16
2022-11-26T06:30:17.747Z,4.27
2022-11-26T06:32:45.672Z,4.36
2022-11-26T06:35:13.650Z,4.49
2022-11-26T06:37:41.613Z,4.61
2022-11-26T06:40:10.673Z,4.74
2022-11-26T06:42:38.667Z,4.88
2022-11-26T06:45:07.351Z,5.01
2022-11-26T06:47:36.710Z,5.00
2022-11-26T06:50:10.450Z,5.09
2022-11-26T06:52:38.754Z,5.10
2022-11-26T06:55:07.296Z,5.03
2022-11-26T06:57:35.325Z,5.01
2022-11-26T07:00:03.352Z,5.04
2022-11-26T07:02:31.355Z,5.07
2022-11-26T07:05:00.949Z,5.10
2022-11-26T07:07:28.978Z,5.03
2022-11-26T07:09:56.992Z,5.14
2022-11-26T07:12:25.098Z,5.11
2022-11-26T07:14:53.021Z,5.14
2022-11-26T07:17:20.997Z,5.20
2022-11-26T07:19:48.960Z,5.30
2022-11-26T07:22:18.335Z,5.39
2022-11-26T07:24:46.313Z,5.50
2022-11-26T07:27:14.236Z,5.56
2022-11-26T07:29:42.226Z,5.70
2022-11-26T07:32:10.214Z,5.79
2022-11-26T07:34:38.395Z,5.93
2022-11-26T07:37:06.470Z,5.99
2022-11-26T07:39:35.805Z,6.10
2022-11-26T07:42:03.794Z,6.14
2022-11-26T07:44:31.790Z,6.27
2022-11-26T07:47:00.713Z,6.39
2022-11-26T07:49:28.766Z,6.56
2022-11-26T07:51:56.698Z,6.61
2022-11-26T07:54:24.683Z,6.64
2022-11-26T07:56:54.049Z,6.81
2022-11-26T07:59:22.661Z,6.93
2022-11-26T08:01:50.641Z,7.07
2022-11-26T08:04:18.681Z,7.24
2022-11-26T08:06:46.692Z,7.36
2022-11-26T08:09:14.592Z,7.44
2022-11-26T08:11:42.569Z,7.54
2022-11-26T08:14:12.716Z,7.61
2022-11-26T08:16:40.878Z,7.56
2022-11-26T08:19:09.572Z,7.61
2022-11-26T08:21:38.472Z,7.67
2022-11-26T08:24:07.090Z,7.79
2022-11-26T08:26:38.588Z,7.89
2022-11-26T08:29:13.105Z,7.97
2022-11-26T08:31:45.673Z,8.20
2022-11-26T08:34:15.489Z,8.38
2022-11-26T08:36:43.449Z,8.51
2022-11-26T08:39:13.116Z,8.65
2022-11-26T08:41:41.039Z,8.70
2022-11-26T08:44:09.130Z,8.62
2022-11-26T08:46:39.096Z,8.83
2022-11-26T08:49:07.175Z,8.93
2022-11-26T08:51:35.138Z,9.13
2022-11-26T08:54:03.107Z,9.53
2022-11-26T08:56:31.094Z,10.12
2022-11-26T08:58:59.300Z,10.55
2022-11-26T09:01:28.704Z,10.70
2022-11-26T09:03:59.101Z,10.89
2022-11-26T09:06:28.093Z,11.22
2022-11-26T09:09:14.363Z,11.15
2022-11-26T09:11:43.999Z,11.17
2022-11-26T09:14:12.231Z,11.23
2022-11-26T09:16:40.479Z,11.64
2022-11-26T09:19:09.880Z,12.38
2022-11-26T09:21:38.051Z,12.50
2022-11-26T09:24:06.286Z,12.35
2022-11-26T09:26:34.288Z,12.58
2022-11-26T09:29:02.372Z,13.04
2022-11-26T09:31:30.383Z,13.79
2022-11-26T09:33:58.597Z,14.40
2022-11-26T09:36:28.073Z,14.28
2022-11-26T09:38:56.070Z,14.09
2022-11-26T09:41:39.744Z,13.91
2022-11-26T09:44:23.321Z,13.33
2022-11-26T09:47:11.646Z,13.31
2022-11-26T09:49:44.764Z,13.41
2022-11-26T09:52:14.664Z,13.22
2022-11-26T09:54:42.614Z,12.99
2022-11-26T09:57:18.773Z,13.07
2022-11-26T09:59:46.884Z,13.06
2022-11-26T10:02:15.067Z,13.14
2022-11-26T10:04:43.175Z,13.80
2022-11-26T10:07:20.322Z,14.12
2022-11-26T10:09:56.913Z,14.61
2022-11-26T10:12:30.240Z,14.22
2022-11-26T10:15:01.836Z,13.60
2022-11-26T10:17:35.510Z,13.68
2022-11-26T10:20:29.825Z,13.68
2022-11-26T10:23:00.514Z,13.84
2022-11-26T10:25:29.616Z,14.12
2022-11-26T10:27:57.633Z,14.52
2022-11-26T10:30:26.525Z,15.32
2022-11-26T10:32:54.956Z,15.10
2022-11-26T10:35:27.481Z,14.83
2022-11-26T10:37:55.665Z,14.40
2022-11-26T10:40:26.321Z,14.09
2022-11-26T10:43:01.120Z,14.05
2022-11-26T10:45:37.445Z,14.51
2022-11-26T10:48:17.496Z,15.35
2022-11-26T10:50:48.035Z,15.37
2022-11-26T10:53:20.666Z,15.29
2022-11-26T10:55:49.924Z,14.82
2022-11-26T10:58:18.303Z,14.77
2022-11-26T11:00:54.504Z,14.96
2022-11-26T11:03:44.629Z,15.04
2022-11-26T11:06:25.419Z,14.87
2022-11-26T11:08:53.611Z,14.95
2022-11-26T11:11:23.739Z,14.36
2022-11-26T11:13:51.707Z,14.32
2022-11-26T11:16:24.118Z,14.20
2022-11-26T11:18:53.646Z,14.14
2022-11-26T11:21:22.517Z,13.90
2022-11-26T11:24:08.213Z,13.92
2022-11-26T11:26:43.617Z,13.49
2022-11-26T11:29:25.450Z,12.96
2022-11-26T11:31:53.466Z,12.65
2022-11-26T11:34:22.617Z,12.38
2022-11-26T11:37:00.078Z,12.20
2022-11-26T11:39:29.274Z,11.89
2022-11-26T11:41:58.974Z,11.50
2022-11-26T11:44:28.098Z,11.36
2022-11-26T11:47:09.690Z,11.16
2022-11-26T11:49:46.152Z,10.88
2022-11-26T11:52:19.026Z,10.85
2022-11-26T11:54:52.607Z,10.61
2022-11-26T11:57:24.480Z,10.73
2022-11-26T12:00:10.770Z,10.62
2022-11-26T12:02:48.113Z,10.60
2022-11-26T12:05:35.173Z,10.46
2022-11-26T12:08:06.303Z,10.48
2022-11-26T12:10:36.333Z,10.43
2022-11-26T12:13:07.130Z,10.47
2022-11-26T12:15:36.781Z,10.41
2022-11-26T12:18:07.320Z,10.32
2022-11-26T12:20:37.772Z,10.17
2022-11-26T12:23:16.043Z,10.23
2022-11-26T12:25:45.831Z,10.23
2022-11-26T12:28:16.708Z,10.21
2022-11-26T12:30:47.735Z,10.21
2022-11-26T12:33:17.871Z,10.17
2022-11-26T12:35:47.849Z,10.10
2022-11-26T12:38:18.157Z,10.08
2022-11-26T12:40:48.481Z,10.08
2022-11-26T12:43:20.292Z,9.87
2022-11-26T12:45:51.262Z,10.00
2022-11-26T12:48:32.930Z,9.98
2022-11-26T12:51:04.266Z,9.98
2022-11-26T12:53:35.349Z,9.94
2022-11-26T12:56:07.599Z,9.86
2022-11-26T12:58:42.477Z,9.75
2022-11-26T13:01:10.619Z,9.75
2022-11-26T13:03:38.613Z,9.78
2022-11-26T13:06:09.961Z,9.72
2022-11-26T13:08:42.505Z,9.63
2022-11-26T13:11:26.089Z,9.54
2022-11-26T13:13:59.928Z,9.48
2022-11-26T13:16:34.973Z,9.48
2022-11-26T13:19:07.085Z,9.46
2022-11-26T13:21:42.701Z,9.41
2022-11-26T13:24:25.404Z,9.43
2022-11-26T13:27:10.233Z,9.34
2022-11-26T13:30:01.739Z,9.25
2022-11-26T13:32:54.184Z,9.16
2022-11-26T13:35:27.290Z,9.07
2022-11-26T13:38:02.083Z,9.08
2022-11-26T13:41:03.618Z,9.03
2022-11-26T13:44:06.884Z,9.10
2022-11-26T13:46:36.444Z,8.91
2022-11-26T13:49:06.268Z,8.80
2022-11-26T13:51:35.722Z,8.85
2022-11-26T13:54:08.045Z,8.77
2022-11-26T13:56:36.333Z,8.75
2022-11-26T13:59:06.334Z,8.70
2022-11-26T14:01:37.234Z,8.60
2022-11-26T14:04:06.829Z,8.52
2022-11-26T14:06:34.834Z,8.50
2022-11-26T14:09:02.830Z,8.48
2022-11-26T14:11:54.460Z,8.41
2022-11-26T14:14:37.802Z,8.35
2022-11-26T14:17:15.890Z,8.26
2022-11-26T14:20:16.710Z,8.17
2022-11-26T14:22:44.741Z,8.12
2022-11-26T14:25:14.159Z,8.06
2022-11-26T14:27:50.254Z,7.98
2022-11-26T14:30:26.833Z,7.89
2022-11-26T14:33:21.122Z,7.74
2022-11-26T14:35:55.688Z,7.72
2022-11-26T14:38:25.492Z,7.63
2022-11-26T14:41:00.226Z,7.32
2022-11-26T14:43:28.245Z,7.44
2022-11-26T14:46:04.697Z,7.38
2022-11-26T14:48:35.303Z,7.22
2022-11-26T14:51:04.821Z,7.26
2022-11-26T14:53:33.661Z,7.19
2022-11-26T14:56:01.571Z,7.05
2022-11-26T14:58:32.706Z,6.96
2022-11-26T15:01:05.243Z,6.92
2022-11-26T15:03:34.626Z,6.91
2022-11-26T15:06:02.673Z,6.79
2022-11-26T15:08:30.591Z,6.77
2022-11-26T15:11:01.413Z,6.65
2022-11-26T15:13:30.997Z,6.58
2022-11-26T15:15:59.859Z,6.50
2022-11-26T15:18:29.598Z,6.42
2022-11-26T15:20:58.937Z,6.30
2022-11-26T15:23:29.100Z,6.20
2022-11-26T15:25:57.265Z,6.08
2022-11-26T15:28:25.316Z,5.98
2022-11-26T15:30:55.225Z,5.88
2022-11-26T15:33:23.200Z,5.81
2022-11-26T15:35:56.700Z,5.70
2022-11-26T15:38:26.781Z,5.59
2022-11-26T15:40:56.207Z,5.51
2022-11-26T15:43:27.952Z,5.40
2022-11-26T15:45:57.142Z,5.33
2022-11-26T15:48:44.047Z,5.22
2022-11-26T15:51:17.725Z,5.16
2022-11-26T15:53:47.845Z,5.12
2022-11-26T15:56:18.032Z,4.97
2022-11-26T15:58:48.501Z,4.83
2022-11-26T16:01:17.827Z,4.75
2022-11-26T16:03:46.676Z,4.64
2022-11-26T16:06:27.873Z,4.57
2022-11-26T16:09:06.765Z,4.47
2022-11-26T16:11:37.010Z,4.46
2022-11-26T16:14:32.713Z,4.44
2022-11-26T16:17:07.857Z,4.41
2022-11-26T16:19:36.945Z,4.34
2022-11-26T16:22:05.965Z,4.31
2022-11-26T16:24:38.736Z,4.27
2022-11-26T16:27:07.883Z,4.22
2022-11-26T16:29:36.859Z,4.19
2022-11-26T16:32:05.085Z,4.13
2022-11-26T16:34:33.007Z,4.09
2022-11-26T16:37:02.457Z,4.04
2022-11-26T16:39:32.100Z,4.00
2022-11-26T16:42:04.258Z,3.94
2022-11-26T16:44:32.222Z,3.88
2022-11-26T16:47:00.201Z,3.85
2022-11-26T16:49:30.291Z,3.85
2022-11-26T16:51:58.327Z,3.78
2022-11-26T16:54:26.313Z,3.73
2022-11-26T16:56:56.155Z,3.68
2022-11-26T16:59:27.116Z,3.60
2022-11-26T17:01:55.117Z,3.62
2022-11-26T17:04:23.130Z,3.59
2022-11-26T17:06:51.084Z,3.54
2022-11-26T17:09:19.124Z,3.51
2022-11-26T17:11:47.092Z,3.48
2022-11-26T17:14:15.490Z,3.43
2022-11-26T17:16:44.904Z,3.46
2022-11-26T17:19:13.961Z,3.41
2022-11-26T17:21:41.944Z,3.40
2022-11-26T17:24:09.964Z,3.39
2022-11-26T17:26:37.908Z,3.35
2022-11-26T17:29:05.889Z,3.27
2022-11-26T17:31:33.840Z,3.25
2022-11-26T17:34:03.252Z,3.16
2022-11-26T17:36:36.440Z,3.12
2022-11-26T17:39:05.067Z,3.06
2022-11-26T17:41:33.034Z,3.03
2022-11-26T17:44:00.972Z,3.02
2022-11-26T17:46:29.006Z,2.96
2022-11-26T17:48:59.803Z,2.93
2022-11-26T17:51:29.481Z,2.90
2022-11-26T17:53:57.495Z,2.89
2022-11-26T17:56:27.030Z,2.91
2022-11-26T17:58:54.988Z,2.95
2022-11-26T18:01:23.043Z,3.01
2022-11-26T18:03:52.438Z,2.99
2022-11-26T18:06:21.701Z,3.02
2022-11-26T18:08:51.120Z,2.98
2022-11-26T18:11:19.118Z,2.73
2022-11-26T18:13:47.054Z,2.88
2022-11-26T18:16:15.051Z,2.83
2022-11-26T18:18:43.010Z,2.78
2022-11-26T18:21:11.914Z,2.73
2022-11-26T18:23:41.376Z,2.71
2022-11-26T18:26:17.992Z,2.67
2022-11-26T18:28:45.994Z,2.61
2022-11-26T18:31:14.069Z,2.57
2022-11-26T18:33:42.119Z,2.50
2022-11-26T18:36:10.587Z,2.49
2022-11-26T18:38:38.702Z,2.47
2022-11-26T18:41:06.944Z,2.45
2022-11-26T18:43:37.638Z,2.42
2022-11-26T18:46:05.844Z,2.40
2022-11-26T18:48:34.717Z,2.40
2022-11-26T18:51:02.696Z,2.39
2022-11-26T18:53:30.769Z,2.34
2022-11-26T18:55:58.891Z,2.34
2022-11-26T18:58:26.917Z,2.37
2022-11-26T19:00:58.625Z,2.36
2022-11-26T19:03:27.517Z,2.32
2022-11-26T19:05:56.051Z,2.32
2022-11-26T19:08:24.386Z,2.30
2022-11-26T19:10:52.309Z,2.27
2022-11-26T19:13:20.333Z,2.29
2022-11-26T19:15:48.412Z,2.28
2022-11-26T19:18:17.838Z,2.26
2022-11-26T19:20:49.888Z,2.24
2022-11-26T19:23:18.476Z,2.22
2022-11-26T19:25:46.424Z,2.21
2022-11-26T19:28:14.447Z,2.18
2022-11-26T19:30:42.371Z,2.14
2022-11-26T19:33:10.378Z,2.12
2022-11-26T19:35:41.064Z,2.08
2022-11-26T19:38:08.965Z,2.02
2022-11-26T19:40:37.030Z,1.99
2022-11-26T19:43:04.953Z,1.89
2022-11-26T19:45:33.016Z,1.92
2022-11-26T19:48:01.042Z,1.89
2022-11-26T19:50:29.040Z,1.83
2022-11-26T19:52:58.462Z,1.82
2022-11-26T19:55:26.843Z,1.80
2022-11-26T19:57:55.640Z,1.79
2022-11-26T20:00:23.708Z,1.76
2022-11-26T20:02:51.752Z,1.72
2022-11-26T20:05:19.733Z,1.69
2022-11-26T20:07:47.735Z,1.67
2022-11-26T20:10:17.254Z,1.64
2022-11-26T20:12:45.196Z,1.64
2022-11-26T20:15:13.163Z,1.61
2022-11-26T20:17:41.098Z,1.58
